Time;durP1;ratioP1;P1;durP2;ratioP2;P2;SDS_P1;SDS_P2;PMS_P1;PMS_P2;Temp;Humidity;BMP_temperature;BMP_pressure;BME280_temperature;BME280_humidity;BME280_pressure;Samples;Min_cycle;Max_cycle;Signal;HPM_P1;HPM_P2
2021/03/11 00:00:51;;;;;;;17.27;5.47;;;;;;;;;;4907749;29;20044;-88
2021/03/11 00:03:27;;;;;;;13.25;3.92;;;11.30;99.90;;;;;;4912295;29;20500;-87
2021/03/11 00:06:02;;;;;;;12.82;4.95;;;;;;;;;;4892316;29;20051;-87
2021/03/11 00:08:30;;;;;;;21.95;6.05;;;;;;;;;;4914392;28;20051;-89
2021/03/11 00:11:00;;;;;;;22.08;5.60;;;;;;;;;;4900653;29;20051;-86
2021/03/11 00:13:38;;;;;;;22.40;5.47;;;;;;;;;;4904256;29;20044;-88
2021/03/11 00:16:09;;;;;;;24.55;5.35;;;;;;;;;;4919749;29;20063;-89
2021/03/11 00:18:40;;;;;;;21.02;5.88;;;;;;;;;;4921745;29;20064;-87
2021/03/11 00:21:09;;;;;;;17.90;4.50;;;;;;;;;;4921160;29;20048;-87
2021/03/11 00:23:37;;;;;;;26.15;7.32;;;;;;;;;;4904020;29;20064;-85
2021/03/11 00:26:06;;;;;;;35.45;8.23;;;;;;;;;;4902401;29;20070;-85
2021/03/11 00:28:41;;;;;;;27.45;6.35;;;;;;;;;;4921646;29;20060;-87
2021/03/11 00:31:11;;;;;;;31.42;5.70;;;;;;;;;;4920504;29;20048;-85
2021/03/11 00:33:41;;;;;;;19.88;6.60;;;;;;;;;;4899889;29;20059;-87
2021/03/11 00:36:10;;;;;;;36.03;5.85;;;;;;;;;;4899958;29;20080;-85
2021/03/11 00:38:37;;;;;;;28.35;5.55;;;;;;;;;;4905430;29;20048;-86
2021/03/11 00:41:06;;;;;;;23.45;6.38;;;;;;;;;;4903548;29;20052;-85
2021/03/11 00:43:34;;;;;;;17.02;6.15;;;;;;;;;;4888933;29;20051;-85
2021/03/11 00:46:06;;;;;;;26.88;8.30;;;;;;;;;;4934399;29;20058;-87
2021/03/11 00:48:35;;;;;;;33.25;9.20;;;;;;;;;;4938691;29;20051;-87
2021/03/11 00:51:05;;;;;;;28.65;6.28;;;;;;;;;;4881977;29;20056;-86
2021/03/11 00:53:54;;;;;;;24.40;8.88;;;;;;;;;;4901712;29;20060;-86
2021/03/11 00:56:22;;;;;;;42.17;9.23;;;;;;;;;;4868962;29;20056;-89
2021/03/11 00:58:50;;;;;;;33.13;7.20;;;;;;;;;;4899169;29;20060;-87
2021/03/11 01:01:19;;;;;;;36.35;7.13;;;;;;;;;;4897371;29;20048;-87
2021/03/11 01:03:54;;;;;;;26.88;7.65;;;;;;;;;;4893846;29;20063;-85
2021/03/11 01:06:22;;;;;;;21.58;5.72;;;;;;;;;;4899944;29;20055;-87
2021/03/11 01:08:57;;;;;;;29.50;4.40;;;;;;;;;;4896907;29;20060;-86
2021/03/11 01:11:25;;;;;;;40.97;9.52;;;;;;;;;;4904570;29;20072;-87
2021/03/11 01:13:53;;;;;;;19.52;4.95;;;;;;;;;;4894262;29;20563;-87
2021/03/11 01:16:22;;;;;;;10.57;4.55;;;11.10;99.90;;;;;;4912044;29;20056;-84
2021/03/11 01:18:51;;;;;;;29.42;7.55;;;;;;;;;;4912591;29;20067;-87
2021/03/11 01:21:32;;;;;;;33.28;6.40;;;;;;;;;;4908777;29;20051;-87
2021/03/11 01:24:19;;;;;;;25.20;6.38;;;;;;;;;;4907583;29;20062;-87
2021/03/11 01:26:53;;;;;;;38.92;8.48;;;;;;;;;;4925526;29;20574;-89
2021/03/11 01:29:24;;;;;;;33.13;8.57;;;;;;;;;;4906488;29;20056;-86
2021/03/11 01:31:56;;;;;;;39.50;11.10;;;;;;;;;;4898605;29;20036;-87
2021/03/11 01:34:25;;;;;;;21.58;5.78;;;;;;;;;;4904014;29;20060;-86
2021/03/11 01:36:53;;;;;;;39.25;7.30;;;;;;;;;;4911273;29;20056;-85
2021/03/11 01:39:27;;;;;;;26.15;7.38;;;;;;;;;;4882055;29;20048;-87
2021/03/11 01:42:04;;;;;;;28.95;9.90;;;;;;;;;;4927591;29;20048;-86
2021/03/11 01:44:37;;;;;;;38.53;10.10;;;;;;;;;;4910003;29;20063;-90
2021/03/11 01:47:05;;;;;;;38.13;6.57;;;;;;;;;;4893969;29;20052;-86
2021/03/11 01:49:38;;;;;;;21.00;6.65;;;11.40;99.90;;;;;;4911898;29;20441;-85
2021/03/11 01:52:09;;;;;;;24.33;7.03;;;;;;;;;;4918296;29;20059;-87
2021/03/11 01:54:46;;;;;;;19.73;6.78;;;;;;;;;;4909522;29;20048;-90
2021/03/11 01:57:15;;;;;;;27.05;6.68;;;;;;;;;;4923577;29;20056;-86
2021/03/11 01:59:51;;;;;;;18.10;5.18;;;;;;;;;;4911078;29;20059;-87
2021/03/11 02:02:21;;;;;;;35.10;7.78;;;;;;;;;;4909431;29;20067;-88
2021/03/11 02:04:51;;;;;;;26.98;8.50;;;;;;;;;;4927256;29;20044;-88
2021/03/11 02:07:24;;;;;;;25.55;7.88;;;;;;;;;;4905978;29;20052;-87
2021/03/11 02:09:58;;;;;;;14.98;6.47;;;11.10;99.90;;;;;;4922093;29;20063;-87
2021/03/11 02:12:45;;;;;;;31.00;8.77;;;11.50;99.90;;;;;;4917957;29;20040;-88
2021/03/11 02:15:26;;;;;;;20.23;6.45;;;11.60;99.90;;;;;;4910664;29;20054;-87
2021/03/11 02:18:18;;;;;;;27.48;8.73;;;;;;;;;;4902383;29;20059;-87
2021/03/11 02:20:57;;;;;;;23.75;8.65;;;11.60;99.90;;;;;;4901751;29;20063;-87
2021/03/11 02:24:03;;;;;;;40.15;9.48;;;11.60;99.90;;;;;;4890694;29;20056;-86
2021/03/11 02:27:13;;;;;;;38.47;8.38;;;11.50;99.90;;;;;;4712247;29;10001001;-87
2021/03/11 02:29:46;;;;;;;25.75;6.10;;;11.50;99.90;;;;;;4903164;29;20628;-86
2021/03/11 02:32:26;;;;;;;32.65;7.22;;;11.40;99.90;;;;;;4928984;29;20067;-88
2021/03/11 02:35:01;;;;;;;45.80;9.63;;;11.50;99.90;;;;;;4908676;29;20137;-89
2021/03/11 02:37:34;;;;;;;25.10;6.63;;;;;;;;;;4906702;29;20047;-86
2021/03/11 02:40:13;;;;;;;30.38;8.20;;;11.50;99.90;;;;;;4902589;29;20062;-88
2021/03/11 02:42:50;;;;;;;24.98;6.13;;;11.50;99.90;;;;;;4911254;29;20051;-88
2021/03/11 02:45:21;;;;;;;33.20;7.85;;;11.60;99.90;;;;;;4910587;29;20043;-87
2021/03/11 02:47:50;;;;;;;33.40;10.45;;;11.50;99.90;;;;;;4918661;29;20067;-88
2021/03/11 02:50:34;;;;;;;37.92;10.73;;;11.40;99.90;;;;;;4893193;29;20044;-88
2021/03/11 02:53:03;;;;;;;33.13;7.85;;;11.30;99.90;;;;;;4909319;29;20060;-90
2021/03/11 02:55:33;;;;;;;23.25;7.47;;;11.50;99.90;;;;;;4911769;29;20047;-87
2021/03/11 02:58:02;;;;;;;32.67;11.38;;;11.30;99.90;;;;;;4885860;29;20499;-86
2021/03/11 03:00:31;;;;;;;30.88;9.32;;;;;;;;;;4916056;29;20067;-86
2021/03/11 03:02:59;;;;;;;43.72;11.55;;;;;;;;;;4875111;29;20647;-87
2021/03/11 03:05:28;;;;;;;54.08;10.38;;;;;;;;;;4881412;29;20570;-87
2021/03/11 03:07:57;;;;;;;25.55;7.95;;;11.20;99.90;;;;;;4892188;29;20083;-86
2021/03/11 03:10:29;;;;;;;38.03;9.45;;;;;;;;;;4897550;29;20052;-85
2021/03/11 03:13:01;;;;;;;25.85;6.43;;;11.20;99.90;;;;;;4902309;29;20064;-86
2021/03/11 03:15:29;;;;;;;37.85;10.52;;;11.20;99.90;;;;;;4903123;29;20051;-88
2021/03/11 03:17:58;;;;;;;31.23;7.10;;;11.20;99.90;;;;;;4889751;29;20069;-85
2021/03/11 03:20:27;;;;;;;37.40;10.25;;;11.10;99.90;;;;;;4917198;29;20063;-87
2021/03/11 03:22:57;;;;;;;39.92;9.20;;;11.10;99.90;;;;;;4910905;29;20060;-88
2021/03/11 03:25:45;;;;;;;46.45;11.45;;;10.90;99.90;;;;;;4909942;29;20056;-87
2021/03/11 03:28:13;;;;;;;26.98;7.68;;;;;;;;;;4918314;29;20527;-87
2021/03/11 03:30:41;;;;;;;23.98;6.43;;;;;;;;;;4923154;29;20066;-87
2021/03/11 03:33:09;;;;;;;38.53;6.35;;;;;;;;;;4901878;29;20052;-87
2021/03/11 03:35:37;;;;;;;19.58;5.55;;;;;;;;;;4922451;29;20060;-89
2021/03/11 03:38:08;;;;;;;37.85;9.68;;;;;;;;;;4926942;29;20137;-88
2021/03/11 03:40:36;;;;;;;32.75;9.68;;;11.00;99.90;;;;;;4927838;29;20056;-88
2021/03/11 03:43:13;;;;;;;30.50;8.15;;;11.00;99.90;;;;;;4907200;29;20048;-88
2021/03/11 03:45:44;;;;;;;32.28;9.95;;;;;;;;;;4904170;29;20072;-87
2021/03/11 03:48:15;;;;;;;32.78;8.65;;;;;;;;;;4891966;29;20052;-86
2021/03/11 03:50:46;;;;;;;28.02;8.00;;;11.00;99.90;;;;;;4899716;29;20499;-84
2021/03/11 03:53:22;;;;;;;18.25;5.53;;;10.90;99.90;;;;;;4930606;29;20052;-89
2021/03/11 03:56:15;;;;;;;40.25;9.82;;;11.10;99.90;;;;;;4915394;29;20063;-86
2021/03/11 03:58:45;;;;;;;15.27;5.75;;;11.00;99.90;;;;;;4918682;29;20571;-89
2021/03/11 04:01:15;;;;;;;46.58;7.60;;;11.00;99.90;;;;;;4897532;29;20412;-87
2021/03/11 04:03:45;;;;;;;32.03;8.60;;;11.00;99.90;;;;;;4917632;29;20047;-88
2021/03/11 04:06:13;;;;;;;17.75;5.32;;;;;;;;;;4914772;29;20406;-86
2021/03/11 04:08:44;;;;;;;30.88;8.15;;;11.00;99.90;;;;;;4876270;29;20052;-89
2021/03/11 04:11:12;;;;;;;27.60;5.97;;;;;;;;;;4900664;29;20047;-87
2021/03/11 04:13:39;;;;;;;29.98;9.43;;;;;;;;;;4901833;29;20055;-87
2021/03/11 04:16:07;;;;;;;38.70;9.18;;;;;;;;;;4908062;29;20055;-87
2021/03/11 04:18:36;;;;;;;21.27;6.30;;;10.90;99.90;;;;;;4891193;29;20048;-87
2021/03/11 04:21:06;;;;;;;21.67;7.15;;;;;;;;;;4917333;29;20060;-87
2021/03/11 04:23:36;;;;;;;29.83;7.05;;;10.90;99.90;;;;;;4905231;29;20062;-86
2021/03/11 04:26:05;;;;;;;31.52;6.10;;;10.90;99.90;;;;;;4887453;29;20059;-84
2021/03/11 04:28:34;;;;;;;25.08;8.30;;;;;;;;;;4899834;29;20078;-88
2021/03/11 04:31:03;;;;;;;27.30;6.43;;;;;;;;;;4906283;29;20067;-88
2021/03/11 04:33:34;;;;;;;45.35;8.77;;;;;;;;;;4881690;29;20056;-88
2021/03/11 04:36:02;;;;;;;;;;;10.80;99.90;;;;;;4907411;29;20062;-88
2021/03/11 04:38:30;;;;;;;37.08;9.25;;;;;;;;;;4933945;29;20220;-84
2021/03/11 04:40:58;;;;;;;28.75;7.97;;;;;;;;;;4923813;29;20055;-85
2021/03/11 04:43:25;;;;;;;22.75;5.63;;;10.60;99.90;;;;;;4904948;29;20866;-86
2021/03/11 04:45:54;;;;;;;30.33;9.23;;;;;;;;;;4909726;29;20060;-88
2021/03/11 04:48:23;;;;;;;25.27;9.20;;;;;;;;;;4883712;29;20056;-84
2021/03/11 04:50:51;;;;;;;26.10;7.72;;;10.50;99.90;;;;;;4901476;29;20060;-88
2021/03/11 04:53:21;;;;;;;26.55;7.10;;;;;;;;;;4880200;29;20064;-87
2021/03/11 04:55:49;;;;;;;34.95;6.60;;;10.60;99.90;;;;;;4884232;29;20055;-87
2021/03/11 04:58:18;;;;;;;28.88;7.47;;;;;;;;;;4913854;29;20062;-87
2021/03/11 05:00:48;;;;;;;21.88;8.15;;;10.50;99.90;;;;;;4900325;29;20071;-87
2021/03/11 05:03:17;;;;;;;22.38;8.60;;;;;;;;;;4912948;29;20745;-88
2021/03/11 05:05:46;;;;;;;26.13;7.70;;;;;;;;;;4896750;29;20056;-86
2021/03/11 05:08:16;;;;;;;32.53;8.25;;;;;;;;;;4897440;29;20381;-88
2021/03/11 05:10:44;;;;;;;24.63;7.57;;;;;;;;;;4915967;29;20059;-89
2021/03/11 05:13:14;;;;;;;41.38;8.93;;;;;;;;;;4930114;29;20060;-87
2021/03/11 05:15:45;;;;;;;29.75;10.15;;;;;;;;;;4909199;29;20044;-87
2021/03/11 05:18:13;;;;;;;33.13;11.10;;;;;;;;;;4896823;29;20064;-88
2021/03/11 05:20:41;;;;;;;46.47;9.50;;;;;;;;;;4909491;29;20062;-88
2021/03/11 05:23:09;;;;;;;22.48;7.47;;;;;;;;;;4920881;29;20060;-86
2021/03/11 05:25:36;;;;;;;43.08;11.10;;;;;;;;;;4929657;29;20052;-86
2021/03/11 05:28:05;;;;;;;38.40;10.25;;;;;;;;;;4911312;29;20067;-86
2021/03/11 05:30:38;;;;;;;40.88;7.72;;;;;;;;;;4909349;29;20420;-89
2021/03/11 05:33:06;;;;;;;36.55;8.15;;;;;;;;;;4914390;29;20070;-85
2021/03/11 05:35:34;;;;;;;41.58;9.27;;;;;;;;;;4921076;29;20052;-86
2021/03/11 05:38:03;;;;;;;35.08;6.72;;;;;;;;;;4913164;29;20052;-82
2021/03/11 05:40:34;;;;;;;26.60;7.47;;;;;;;;;;4896707;29;20070;-84
2021/03/11 05:43:04;;;;;;;33.63;8.05;;;10.40;99.90;;;;;;4876414;29;20049;-85
2021/03/11 05:45:33;;;;;;;28.88;9.43;;;;;;;;;;4897202;29;20044;-86
2021/03/11 05:48:02;;;;;;;15.70;5.75;;;10.30;99.90;;;;;;4886291;29;20507;-87
2021/03/11 05:50:30;;;;;;;30.17;11.02;;;;;;;;;;4915266;29;20098;-86
2021/03/11 05:52:58;;;;;;;27.60;6.28;;;;;;;;;;4887540;29;20064;-87
2021/03/11 05:55:27;;;;;;;48.15;8.77;;;;;;;;;;4888659;29;20055;-84
2021/03/11 05:57:56;;;;;;;37.00;10.80;;;;;;;;;;4901908;29;20087;-86
2021/03/11 06:00:27;;;;;;;33.03;8.00;;;;;;;;;;4909912;29;20056;-84
2021/03/11 06:02:57;;;;;;;48.55;9.93;;;;;;;;;;4883769;29;20397;-86
2021/03/11 06:05:25;;;;;;;38.03;12.80;;;;;;;;;;4882369;29;20059;-85
2021/03/11 06:07:54;;;;;;;31.40;8.68;;;;;;;;;;4897939;29;20052;-86
2021/03/11 06:10:23;;;;;;;42.85;10.43;;;10.00;99.90;;;;;;4885015;29;20048;-86
2021/03/11 06:12:53;;;;;;;45.75;9.23;;;;;;;;;;4900713;29;20137;-87
2021/03/11 06:15:31;;;;;;;36.33;8.40;;;10.10;99.90;;;;;;4897028;29;20056;-87
2021/03/11 06:18:00;;;;;;;40.50;8.05;;;;;;;;;;4924088;29;20056;-88
2021/03/11 06:20:29;;;;;;;21.50;7.45;;;;;;;;;;4881060;29;20407;-87
2021/03/11 06:22:58;;;;;;;25.02;11.23;;;;;;;;;;4925968;29;20055;-86
2021/03/11 06:25:27;;;;;;;34.92;7.90;;;10.30;99.90;;;;;;4907652;29;20060;-89
2021/03/11 06:28:16;;;;;;;24.92;9.05;;;;;;;;;;4896092;29;20040;-87
2021/03/11 06:30:44;;;;;;;33.03;9.13;;;;;;;;;;4892073;29;20055;-85
2021/03/11 06:33:14;;;;;;;25.15;5.75;;;;;;;;;;4914249;29;20067;-88
2021/03/11 06:35:43;;;;;;;39.50;7.32;;;;;;;;;;4902995;29;20496;-84
2021/03/11 06:38:37;;;;;;;36.47;8.27;;;10.30;99.90;;;;;;4917711;29;20066;-86
2021/03/11 06:41:07;;;;;;;32.65;8.15;;;;;;;;;;4919329;29;20060;-88
2021/03/11 06:43:56;;;;;;;31.02;6.38;;;;;;;;;;4910116;29;20071;-86
2021/03/11 06:46:31;;;;;;;36.67;7.70;;;10.40;99.90;;;;;;4918278;29;20052;-85
2021/03/11 06:49:07;;;;;;;47.70;10.10;;;;;;;;;;4928710;29;20052;-87
2021/03/11 06:51:41;;;;;;;26.90;6.97;;;;;;;;;;4921602;29;20052;-87
2021/03/11 06:54:18;;;;;;;21.58;7.20;;;;;;;;;;4936340;29;20205;-85
2021/03/11 06:56:50;;;;;;;20.02;5.57;;;;;;;;;;4949271;29;20055;-86
2021/03/11 06:59:45;;;;;;;29.23;8.80;;;10.60;99.90;;;;;;4926539;29;20063;-87
2021/03/11 07:02:15;;;;;;;27.63;9.48;;;;;;;;;;4915895;29;20051;-90
2021/03/11 07:04:53;;;;;;;34.70;8.27;;;;;;;;;;4897555;29;20036;-89
2021/03/11 07:07:54;;;;;;;26.13;6.00;;;;;;;;;;4895739;29;20052;-89
2021/03/11 07:14:30;;;;;;;22.17;5.82;;;;;;;;;;4993872;28;20039;-93
2021/03/11 07:17:38;;;;;;;29.65;7.85;;;;;;;;;;4982210;28;20060;-93
2021/03/11 07:21:20;;;;;;;28.15;6.75;;;10.70;99.90;;;;;;4958777;28;20047;-89
2021/03/11 07:24:11;;;;;;;22.33;5.18;;;;;;;;;;4973074;28;20430;-88
2021/03/11 07:27:29;;;;;;;20.50;5.22;;;10.80;99.90;;;;;;4952998;28;20099;-89
2021/03/11 07:30:03;;;;;;;20.50;5.80;;;;;;;;;;4967659;28;20046;-88
2021/03/11 07:32:34;;;;;;;36.38;6.05;;;10.80;99.90;;;;;;4975315;28;20045;-89
2021/03/11 07:35:08;;;;;;;21.80;8.45;;;10.80;99.90;;;;;;4972268;28;20080;-90
2021/03/11 07:42:23;;;;;;;13.73;3.55;;;;;;;;;;4984916;28;20049;-88
2021/03/11 07:45:13;;;;;;;14.52;4.80;;;;;;;;;;4962447;28;20410;-86
2021/03/11 07:52:19;;;;;;;21.58;4.85;;;;;;;;;;4956752;28;20065;-89
2021/03/11 07:54:48;;;;;;;18.60;3.72;;;;;;;;;;4934004;28;20390;-89
2021/03/11 07:57:25;;;;;;;20.55;5.00;;;10.90;99.90;;;;;;4948478;28;20054;-91
2021/03/11 07:59:53;;;;;;;8.95;3.40;;;;;;;;;;4939458;28;20058;-89
2021/03/11 08:02:23;;;;;;;14.45;4.57;;;;;;;;;;4928817;29;20062;-89
2021/03/11 08:04:53;;;;;;;19.95;5.35;;;;;;;;;;4959868;28;20054;-90
2021/03/11 08:07:58;;;;;;;15.88;6.10;;;;;;;;;;4939220;29;20043;-87
2021/03/11 08:10:29;;;;;;;12.65;3.17;;;;;;;;;;4951495;28;20047;-90
2021/03/11 08:13:23;;;;;;;10.73;3.20;;;10.90;99.90;;;;;;4952149;29;20073;-88
2021/03/11 08:15:52;;;;;;;21.52;5.00;;;;;;;;;;4930662;28;20051;-89
2021/03/11 08:18:35;;;;;;;16.90;4.60;;;;;;;;;;4928504;29;20058;-91
2021/03/11 08:21:05;;;;;;;14.55;2.90;;;;;;;;;;4944655;29;20066;-88
2021/03/11 08:23:35;;;;;;;18.20;4.93;;;;;;;;;;4908817;28;20407;-89
2021/03/11 08:26:04;;;;;;;12.60;5.25;;;;;;;;;;4917147;29;20062;-91
2021/03/11 08:28:32;;;;;;;14.85;4.40;;;;;;;;;;4932065;29;20047;-89
2021/03/11 08:31:06;;;;;;;9.40;2.40;;;;;;;;;;4927070;29;20059;-87
2021/03/11 08:33:40;;;;;;;12.98;2.85;;;;;;;;;;4920104;29;20499;-93
2021/03/11 08:36:36;;;;;;;11.18;2.67;;;;;;;;;;4989026;23;20043;-94
2021/03/11 08:40:20;;;;;;;15.90;3.28;;;;;;;;;;4982341;28;20051;-91
2021/03/11 08:43:01;;;;;;;41.20;5.00;;;;;;;;;;4959050;28;20058;-92
2021/03/11 08:46:23;;;;;;;6.88;2.42;;;;;;;;;;4998658;23;20055;-92
2021/03/11 08:49:42;;;;;;;7.65;2.13;;;11.40;99.90;;;;;;4979646;28;20057;-93
2021/03/11 08:52:43;;;;;;;16.27;5.13;;;11.10;99.90;;;;;;4976439;28;20053;-90
2021/03/11 08:55:40;;;;;;;13.65;3.97;;;11.30;99.90;;;;;;4969107;28;20030;-87
2021/03/11 08:58:38;;;;;;;11.73;2.63;;;;;;;;;;4958830;28;20054;-89
2021/03/11 09:01:07;;;;;;;12.02;2.67;;;;;;;;;;4928763;28;20051;-93
2021/03/11 09:03:49;;;;;;;5.60;2.17;;;11.30;99.90;;;;;;4938619;28;20058;-89
2021/03/11 09:07:00;;;;;;;17.67;4.30;;;11.30;99.90;;;;;;4963431;28;20048;-90
2021/03/11 09:09:39;;;;;;;13.77;3.40;;;;;;;;;;4929115;29;20124;-91
2021/03/11 09:12:46;;;;;;;8.65;2.65;;;;;;;;;;4958728;28;20062;-91
2021/03/11 09:15:50;;;;;;;7.70;2.63;;;11.40;99.90;;;;;;4930899;29;20368;-92
2021/03/11 09:18:20;;;;;;;12.27;3.95;;;;;;;;;;4906562;29;20044;-91
2021/03/11 09:20:55;;;;;;;11.95;2.22;;;;;;;;;;4929206;29;20058;-91
2021/03/11 09:23:41;;;;;;;13.13;2.70;;;;;;;;;;4931984;29;20056;-92
2021/03/11 09:26:30;;;;;;;13.75;3.83;;;;;;;;;;4940688;29;20059;-89
2021/03/11 09:29:11;;;;;;;11.13;4.70;;;;;;;;;;4946425;29;20050;-91
2021/03/11 09:31:47;;;;;;;13.38;3.53;;;;;;;;;;4949047;29;20043;-89
2021/03/11 09:34:16;;;;;;;12.20;3.45;;;;;;;;;;4930406;29;20047;-90
2021/03/11 09:36:48;;;;;;;7.43;2.97;;;;;;;;;;4934540;28;20046;-90
2021/03/11 09:39:17;;;;;;;8.95;3.30;;;;;;;;;;4942228;29;20047;-91
2021/03/11 09:41:47;;;;;;;11.68;3.35;;;;;;;;;;4937045;29;20047;-92
2021/03/11 09:44:17;;;;;;;13.30;2.88;;;;;;;;;;4918403;28;20053;-90
2021/03/11 09:46:46;;;;;;;10.30;3.38;;;;;;;;;;4927881;29;20511;-88
2021/03/11 09:49:21;;;;;;;9.55;3.17;;;11.50;99.90;;;;;;4920107;29;20055;-90
2021/03/11 09:51:52;;;;;;;14.75;3.45;;;;;;;;;;4936630;29;20054;-89
2021/03/11 09:54:20;;;;;;;20.47;3.93;;;;;;;;;;4930586;29;20062;-91
2021/03/11 09:56:48;;;;;;;18.02;3.22;;;;;;;;;;4926128;29;20412;-89
2021/03/11 09:59:17;;;;;;;15.95;2.75;;;;;;;;;;4949706;29;20043;-92
2021/03/11 10:01:48;;;;;;;12.82;2.90;;;11.00;99.90;;;;;;4910064;29;20415;-90
2021/03/11 10:04:21;;;;;;;11.30;2.55;;;11.10;99.90;;;;;;4924928;28;20047;-89
2021/03/11 10:06:52;;;;;;;11.87;3.57;;;11.10;99.90;;;;;;4938566;29;20495;-89
2021/03/11 10:09:24;;;;;;;7.90;2.42;;;11.10;99.90;;;;;;4941655;29;20297;-90
2021/03/11 10:11:53;;;;;;;9.65;2.78;;;11.20;99.90;;;;;;4922572;29;20043;-88
2021/03/11 10:14:26;;;;;;;21.20;3.30;;;11.20;99.90;;;;;;4920821;29;20420;-88
2021/03/11 10:17:02;;;;;;;14.02;4.75;;;11.40;99.90;;;;;;4923020;29;20502;-88
2021/03/11 10:19:31;;;;;;;9.35;2.00;;;;;;;;;;4934654;29;20508;-89
2021/03/11 10:22:02;;;;;;;14.70;2.92;;;;;;;;;;4911883;28;20050;-90
2021/03/11 10:24:37;;;;;;;14.40;3.47;;;;;;;;;;4931872;29;20051;-90
2021/03/11 10:27:17;;;;;;;10.45;2.38;;;;;;;;;;4930611;29;20051;-91
2021/03/11 10:29:46;;;;;;;6.07;2.03;;;;;;;;;;4949881;28;20050;-91
2021/03/11 10:32:25;;;;;;;5.32;2.45;;;;;;;;;;4929497;29;20043;-90
2021/03/11 10:34:55;;;;;;;17.52;4.35;;;;;;;;;;4957698;28;20055;-91
2021/03/11 10:37:41;;;;;;;26.33;2.80;;;;;;;;;;4945571;28;20067;-91
2021/03/11 10:40:22;;;;;;;5.80;2.97;;;;;;;;;;4944153;29;20047;-88
2021/03/11 10:43:28;;;;;;;11.77;2.35;;;;;;;;;;4904562;28;20487;-87
2021/03/11 10:46:04;;;;;;;2.75;1.45;;;;;;;;;;4931931;29;20066;-91
2021/03/11 10:48:52;;;;;;;8.13;1.50;;;11.60;99.90;;;;;;4947558;29;20458;-90
2021/03/11 10:51:27;;;;;;;11.07;2.85;;;11.70;99.90;;;;;;4931290;29;20066;-87
2021/03/11 10:53:58;;;;;;;6.43;1.98;;;;;;;;;;4942401;29;20051;-89
2021/03/11 10:56:27;;;;;;;22.60;3.03;;;11.70;99.90;;;;;;4954885;28;20043;-89
2021/03/11 10:59:14;;;;;;;5.65;1.73;;;;;;;;;;4902596;29;20047;-88
2021/03/11 11:01:52;;;;;;;3.58;1.90;;;;;;;;;;4940288;29;20496;-89
2021/03/11 11:04:21;;;;;;;10.95;1.70;;;;;;;;;;4907952;29;20040;-89
2021/03/11 11:06:48;;;;;;;3.55;2.13;;;;;;;;;;4920255;29;20066;-87
2021/03/11 11:09:16;;;;;;;8.27;2.03;;;;;;;;;;4936493;29;20135;-87
2021/03/11 11:11:44;;;;;;;6.68;3.25;;;;;;;;;;4904773;28;20067;-88
2021/03/11 11:14:11;;;;;;;5.90;2.25;;;;;;;;;;4954121;28;20056;-89
2021/03/11 11:16:40;;;;;;;6.40;1.77;;;;;;;;;;4916292;29;20475;-88
2021/03/11 11:19:09;;;;;;;7.00;1.67;;;;;;;;;;4939834;29;20055;-88
2021/03/11 11:21:38;;;;;;;4.10;1.20;;;;;;;;;;4925024;29;20058;-89
2021/03/11 11:24:09;;;;;;;4.13;1.95;;;;;;;;;;4934583;29;20062;-92
2021/03/11 11:26:42;;;;;;;9.10;1.60;;;;;;;;;;4949437;29;20054;-92
2021/03/11 11:29:19;;;;;;;5.78;1.27;;;;;;;;;;4947514;29;20051;-91
2021/03/11 11:31:50;;;;;;;6.38;2.03;;;;;;;;;;4932098;29;20058;-92
2021/03/11 11:34:22;;;;;;;3.08;1.70;;;;;;;;;;4927807;29;20043;-91
2021/03/11 11:36:57;;;;;;;5.40;2.10;;;;;;;;;;4922629;28;20028;-90
2021/03/11 11:39:27;;;;;;;2.50;1.40;;;;;;;;;;4971318;28;20059;-92
2021/03/11 11:42:39;;;;;;;2.95;1.10;;;;;;;;;;4957148;28;20070;-91
2021/03/11 11:45:08;;;;;;;4.03;1.10;;;;;;;;;;4949401;28;20042;-90
2021/03/11 11:47:50;;;;;;;3.38;2.13;;;;;;;;;;4945856;29;20055;-90
2021/03/11 11:50:22;;;;;;;5.75;1.30;;;;;;;;;;4945133;29;20107;-92
2021/03/11 11:52:54;;;;;;;4.95;1.40;;;;;;;;;;4933201;29;20343;-89
2021/03/11 11:55:21;;;;;;;2.90;0.95;;;;;;;;;;4954271;29;20055;-89
2021/03/11 11:57:49;;;;;;;4.72;2.42;;;;;;;;;;4940989;29;20522;-87
2021/03/11 12:00:21;;;;;;;2.72;1.30;;;;;;;;;;4928703;29;20043;-90
2021/03/11 12:02:50;;;;;;;5.78;1.42;;;;;;;;;;4914079;29;20055;-89
2021/03/11 12:05:21;;;;;;;2.53;1.02;;;;;;;;;;4940431;28;20065;-89
2021/03/11 12:07:48;;;;;;;7.75;1.90;;;;;;;;;;4946595;29;20055;-89
2021/03/11 12:13:12;;;;;;;8.95;2.63;;;;;;;;;;4939872;29;20051;-92
2021/03/11 12:15:42;;;;;;;3.33;1.45;;;;;;;;;;4937485;29;20069;-89
2021/03/11 12:18:11;;;;;;;3.87;1.57;;;;;;;;;;4938914;29;20055;-89
2021/03/11 12:20:42;;;;;;;5.32;2.88;;;;;;;;;;4948295;29;20063;-90
2021/03/11 12:23:11;;;;;;;4.28;1.65;;;;;;;;;;4960147;28;20051;-89
2021/03/11 12:25:42;;;;;;;7.20;1.65;;;;;;;;;;4943657;29;20410;-90
2021/03/11 12:28:09;;;;;;;3.33;1.65;;;;;;;;;;4924429;29;20491;-89
2021/03/11 12:30:37;;;;;;;5.93;2.25;;;;;;;;;;4956884;28;20051;-89
2021/03/11 12:33:11;;;;;;;4.72;2.42;;;;;;;;;;4961240;29;20055;-90
2021/03/11 12:35:55;;;;;;;6.35;1.88;;;;;;;;;;4990363;23;20132;-89
2021/03/11 12:38:27;;;;;;;4.00;1.27;;;;;;;;;;4975170;28;20046;-90
2021/03/11 12:40:58;;;;;;;3.20;1.40;;;;;;;;;;4935703;28;20085;-90
2021/03/11 12:43:30;;;;;;;8.80;1.85;;;;;;;;;;4925759;29;20249;-89
2021/03/11 12:45:59;;;;;;;8.55;2.33;;;;;;;;;;4941081;28;20055;-90
2021/03/11 12:48:28;;;;;;;8.10;2.35;;;;;;;;;;4946685;28;20050;-92
2021/03/11 12:50:57;;;;;;;8.38;2.33;;;;;;;;;;4942946;28;20054;-90
2021/03/11 12:53:25;;;;;;;11.45;2.72;;;;;;;;;;4941827;28;20062;-92
2021/03/11 12:55:53;;;;;;;7.40;2.08;;;;;;;;;;4926405;28;20062;-91
2021/03/11 12:58:22;;;;;;;11.57;3.13;;;;;;;;;;4924888;28;20518;-90
2021/03/11 13:00:51;;;;;;;5.70;1.80;;;;;;;;;;4922501;28;20066;-90
2021/03/11 13:03:19;;;;;;;10.05;2.17;;;;;;;;;;4928375;28;20055;-89
2021/03/11 13:05:48;;;;;;;8.65;1.88;;;;;;;;;;4943664;28;20059;-89
2021/03/11 13:08:18;;;;;;;9.10;2.45;;;;;;;;;;4944856;28;20051;-89
2021/03/11 13:10:54;;;;;;;7.15;2.45;;;;;;;;;;4931440;28;20051;-89
2021/03/11 13:13:23;;;;;;;7.80;2.20;;;;;;;;;;4939411;28;20046;-89
2021/03/11 13:15:54;;;;;;;7.00;3.60;;;;;;;;;;4940188;28;20066;-90
2021/03/11 13:18:23;;;;;;;3.50;1.48;;;;;;;;;;4948831;28;20051;-89
2021/03/11 13:20:52;;;;;;;8.63;2.47;;;;;;;;;;4933948;28;20065;-90
2021/03/11 13:23:21;;;;;;;8.00;1.80;;;;;;;;;;4945807;28;20043;-89
2021/03/11 13:25:49;;;;;;;11.43;2.53;;;;;;;;;;4954523;28;20050;-89
2021/03/11 13:28:18;;;;;;;10.10;1.27;;;;;;;;;;4952709;28;20065;-91
2021/03/11 13:30:46;;;;;;;8.80;2.05;;;;;;;;;;4951081;28;20054;-90
2021/03/11 13:33:25;;;;;;;4.93;1.67;;;;;;;;;;4966537;28;20059;-90
2021/03/11 13:35:57;;;;;;;6.10;1.15;;;;;;;;;;4966342;28;20056;-90
2021/03/11 13:38:28;;;;;;;6.53;1.80;;;;;;;;;;4967886;28;20031;-91
2021/03/11 13:40:56;;;;;;;2.08;1.30;;;;;;;;;;4969774;28;20053;-88
2021/03/11 13:43:24;;;;;;;8.25;2.45;;;;;;;;;;4959421;29;20052;-89
2021/03/11 13:45:53;;;;;;;8.90;4.78;;;;;;;;;;4956205;28;20054;-90
2021/03/11 13:48:29;;;;;;;12.57;2.00;;;;;;;;;;4948514;28;20054;-89
2021/03/11 13:51:00;;;;;;;7.22;4.35;;;;;;;;;;4965986;28;20061;-89
2021/03/11 13:53:29;;;;;;;2.67;1.98;;;;;;;;;;4958868;28;20045;-87
2021/03/11 13:55:57;;;;;;;7.20;1.92;;;;;;;;;;4942541;28;20059;-89
2021/03/11 13:58:28;;;;;;;5.43;1.90;;;;;;;;;;4961758;28;20047;-89
2021/03/11 14:01:03;;;;;;;2.75;1.20;;;;;;;;;;4943147;28;20043;-90
2021/03/11 14:03:39;;;;;;;5.20;1.75;;;;;;;;;;4958614;28;20041;-90
2021/03/11 14:06:20;;;;;;;7.28;2.63;;;;;;;;;;4942356;28;20043;-90
2021/03/11 14:08:51;;;;;;;4.22;1.58;;;;;;;;;;4947162;28;20042;-88
2021/03/11 14:43:00;;;;;;;7.78;2.70;;;12.60;99.90;;;;;;4865109;29;20061;-94
2021/03/11 14:45:49;;;;;;;14.25;4.80;;;;;;;;;;5004785;23;20068;-93
2021/03/11 14:56:31;;;;;;;13.43;3.22;;;;;;;;;;5005809;23;20073;-87
2021/03/11 14:59:02;;;;;;;7.97;2.28;;;;;;;;;;4845299;29;20054;-86
2021/03/11 15:01:30;;;;;;;6.35;1.95;;;;;;;;;;4832381;29;20061;-85
2021/03/11 15:03:59;;;;;;;1.75;1.20;;;;;;;;;;4826836;29;20054;-85
2021/03/11 15:06:28;;;;;;;7.45;2.45;;;;;;;;;;4837353;29;20331;-86
2021/03/11 15:09:22;;;;;;;13.65;2.20;;;10.50;99.90;;;;;;4829390;29;20062;-86
2021/03/11 15:12:33;;;;;;;23.70;4.85;;;;;;;;;;4854775;23;20062;-86
2021/03/11 15:15:02;;;;;;;3.20;1.83;;;;;;;;;;4854336;29;20042;-88
2021/03/11 15:17:30;;;;;;;2.95;2.00;;;;;;;;;;4813621;29;20060;-85
2021/03/11 15:20:02;;;;;;;4.80;3.80;;;;;;;;;;4833420;29;20060;-85
2021/03/11 15:22:31;;;;;;;7.78;3.08;;;;;;;;;;4839088;29;20056;-84
2021/03/11 15:25:00;;;;;;;3.22;1.27;;;;;;;;;;4826244;29;20060;-89
2021/03/11 15:27:30;;;;;;;2.10;1.20;;;;;;;;;;4839870;29;20050;-89
2021/03/11 15:30:05;;;;;;;2.92;0.93;;;;;;;;;;4848800;29;20045;-89
2021/03/11 15:32:42;;;;;;;2.88;1.40;;;;;;;;;;4830051;29;20062;-88
2021/03/11 15:35:11;;;;;;;6.55;2.53;;;;;;;;;;4823293;29;20058;-88
2021/03/11 15:37:40;;;;;;;1.13;1.08;;;;;;;;;;4860166;29;20036;-87
2021/03/11 15:40:12;;;;;;;3.22;1.27;;;;;;;;;;4844652;29;20060;-87